createdAt,value
2022-08-20T00:00:27.910Z,21.17
2022-08-20T00:03:13.495Z,23.55
2022-08-20T00:06:09.917Z,20.23
2022-08-20T00:08:57.871Z,19.88
2022-08-20T00:11:44.852Z,20.55
2022-08-20T00:14:31.902Z,19.50
2022-08-20T00:17:14.387Z,21.42
2022-08-20T00:20:00.864Z,22.20
2022-08-20T00:22:41.311Z,21.02
2022-08-20T00:25:28.887Z,17.77
2022-08-20T00:28:23.857Z,18.40
2022-08-20T00:31:12.881Z,18.55
2022-08-20T00:33:54.010Z,23.65
2022-08-20T00:36:40.874Z,22.08
2022-08-20T00:39:27.871Z,18.23
2022-08-20T00:42:14.862Z,22.85
2022-08-20T00:45:01.825Z,19.27
2022-08-20T00:47:51.167Z,18.83
2022-08-20T00:50:40.967Z,18.60
2022-08-20T00:53:29.859Z,16.85
2022-08-20T00:56:18.815Z,21.70
2022-08-20T00:59:07.801Z,21.35
2022-08-20T01:01:55.107Z,18.55
2022-08-20T01:04:37.169Z,15.40
2022-08-20T01:07:26.802Z,19.48
2022-08-20T01:10:26.269Z,17.98
2022-08-20T01:13:16.819Z,16.73
2022-08-20T01:16:05.825Z,16.02
2022-08-20T01:18:54.822Z,15.32
2022-08-20T01:21:46.861Z,17.20
2022-08-20T01:24:40.837Z,16.23
2022-08-20T01:27:35.775Z,15.77
2022-08-20T01:30:33.787Z,15.10
2022-08-20T01:33:20.790Z,12.80
2022-08-20T01:36:01.720Z,17.30
2022-08-20T01:38:53.199Z,16.58
2022-08-20T01:42:00.846Z,21.52
2022-08-20T01:44:51.807Z,16.63
2022-08-20T01:47:33.671Z,17.13
2022-08-20T01:50:39.769Z,19.63
2022-08-20T01:53:40.781Z,20.98
2022-08-20T01:56:30.777Z,15.85
2022-08-20T01:59:18.787Z,21.55
2022-08-20T02:02:00.382Z,17.75
2022-08-20T02:04:47.762Z,17.63
2022-08-20T02:07:36.779Z,21.50
2022-08-20T02:10:24.777Z,18.25
2022-08-20T02:13:09.714Z,18.02
2022-08-20T02:15:56.754Z,20.98
2022-08-20T02:18:44.715Z,14.32
2022-08-20T02:21:34.781Z,16.33
2022-08-20T02:24:21.733Z,15.57
2022-08-20T02:27:08.761Z,16.75
2022-08-20T02:30:03.716Z,17.80
2022-08-20T02:32:51.727Z,18.25
2022-08-20T02:35:43.760Z,18.10
2022-08-20T02:38:30.747Z,20.42
2022-08-20T02:41:17.756Z,24.67
2022-08-20T02:43:58.427Z,19.92
2022-08-20T02:46:45.752Z,21.77
2022-08-20T02:49:26.155Z,24.17
2022-08-20T02:52:12.719Z,23.15
2022-08-20T02:54:59.719Z,21.85
2022-08-20T02:57:46.718Z,20.98
2022-08-20T03:00:38.394Z,16.77
2022-08-20T03:03:29.698Z,21.98
2022-08-20T03:26:08.713Z,18.93
2022-08-20T03:28:49.390Z,21.38
2022-08-20T03:31:36.722Z,27.10
2022-08-20T03:34:23.832Z,25.20
2022-08-20T03:37:03.687Z,26.13
2022-08-20T03:39:50.862Z,30.73
2022-08-20T03:42:30.704Z,28.73
2022-08-20T03:45:16.058Z,28.35
2022-08-20T03:48:08.694Z,24.23
2022-08-20T03:50:57.681Z,25.13
2022-08-20T03:53:37.835Z,26.65
2022-08-20T03:56:24.698Z,21.27
2022-08-20T03:59:04.755Z,20.55
2022-08-20T04:01:51.714Z,22.15
2022-08-20T04:04:31.791Z,22.83
2022-08-20T04:07:21.684Z,26.30
2022-08-20T04:10:10.673Z,30.52
2022-08-20T04:12:53.152Z,26.58
2022-08-20T04:15:39.653Z,22.35
2022-08-20T04:18:27.661Z,35.53
2022-08-20T04:21:07.788Z,36.58
2022-08-20T04:24:01.686Z,37.72
2022-08-20T04:26:42.486Z,29.65
2022-08-20T04:29:32.471Z,28.25
2022-08-20T04:32:21.338Z,29.02
2022-08-20T04:35:01.666Z,32.70
2022-08-20T04:37:49.684Z,35.50
2022-08-20T04:40:48.680Z,37.10
2022-08-20T04:43:43.631Z,36.72
2022-08-20T04:46:25.666Z,39.03
2022-08-20T04:49:13.641Z,40.25
2022-08-20T04:51:54.761Z,32.75
2022-08-20T04:54:42.637Z,36.45
2022-08-20T04:57:22.624Z,36.22
2022-08-20T05:00:02.733Z,40.30
2022-08-20T05:02:50.634Z,38.42
2022-08-20T05:05:31.015Z,43.50
2022-08-20T05:08:20.102Z,41.55
2022-08-20T05:11:32.619Z,38.58
2022-08-20T05:14:09.787Z,44.58
2022-08-20T05:16:50.853Z,37.35
2022-08-20T05:19:39.609Z,47.47
2022-08-20T05:22:26.602Z,45.50
2022-08-20T05:25:17.573Z,45.35
2022-08-20T05:28:10.617Z,43.75
2022-08-20T05:30:52.740Z,36.40
2022-08-20T05:33:40.615Z,32.20
2022-08-20T05:36:21.737Z,33.05
2022-08-20T05:39:08.594Z,29.75
2022-08-20T05:41:51.298Z,40.28
2022-08-20T05:44:38.607Z,32.13
2022-08-20T05:47:19.014Z,35.88
2022-08-20T05:50:08.548Z,41.63
2022-08-20T05:52:49.037Z,40.42
2022-08-20T05:55:35.553Z,39.38
2022-08-20T05:58:22.760Z,53.78
2022-08-20T06:01:09.548Z,41.00
2022-08-20T06:04:15.569Z,39.80
2022-08-20T06:07:02.548Z,35.85
2022-08-20T06:09:44.534Z,27.77
2022-08-20T06:12:31.577Z,31.88
2022-08-20T06:15:19.532Z,35.10
2022-08-20T06:18:13.013Z,22.77
2022-08-20T06:21:07.004Z,22.48
2022-08-20T06:23:57.436Z,14.90
2022-08-20T06:26:53.534Z,17.23
2022-08-20T06:29:34.499Z,19.52
2022-08-20T06:32:31.711Z,14.43
2022-08-20T06:35:19.413Z,16.85
2022-08-20T06:38:07.536Z,22.40
2022-08-20T06:40:54.520Z,15.52
2022-08-20T06:43:34.943Z,13.40
2022-08-20T06:46:21.523Z,14.85
2022-08-20T06:49:10.544Z,12.95
2022-08-20T06:51:57.487Z,17.70
2022-08-20T06:54:44.502Z,13.13
2022-08-20T06:57:24.938Z,10.68
2022-08-20T07:00:20.498Z,13.60
2022-08-20T07:03:01.248Z,11.02
2022-08-20T07:05:51.499Z,11.00
2022-08-20T07:08:31.598Z,10.43
2022-08-20T07:11:18.514Z,12.10
2022-08-20T07:13:58.824Z,9.57
2022-08-20T07:16:45.520Z,17.45
2022-08-20T07:19:25.803Z,8.05
2022-08-20T07:22:12.481Z,10.80
2022-08-20T07:24:52.678Z,14.10
2022-08-20T07:27:40.478Z,9.48
2022-08-20T07:30:56.653Z,12.68
2022-08-20T07:33:46.496Z,8.90
2022-08-20T07:36:30.591Z,8.30
2022-08-20T07:39:17.499Z,11.27
2022-08-20T07:42:03.682Z,9.63
2022-08-20T07:44:50.493Z,9.38
2022-08-20T07:47:30.645Z,11.52
2022-08-20T07:50:20.437Z,8.93
2022-08-20T07:53:01.334Z,15.60
2022-08-20T07:55:57.135Z,9.60
2022-08-20T07:58:40.830Z,8.10
2022-08-20T08:01:32.466Z,8.55
2022-08-20T08:04:19.415Z,10.43
2022-08-20T08:07:07.430Z,13.23
2022-08-20T08:09:54.462Z,14.77
2022-08-20T08:12:41.851Z,12.73
2022-08-20T08:15:39.444Z,10.25
2022-08-20T08:18:32.440Z,10.93
2022-08-20T08:21:16.023Z,11.77
2022-08-20T08:24:02.431Z,9.25
2022-08-20T08:26:53.126Z,12.35
2022-08-20T08:29:32.400Z,9.75
2022-08-20T08:32:19.400Z,9.02
2022-08-20T08:35:06.440Z,11.10
2022-08-20T08:37:46.812Z,12.93
2022-08-20T08:40:35.413Z,11.23
2022-08-20T08:43:17.294Z,12.55
2022-08-20T08:46:13.401Z,17.30
2022-08-20T08:49:04.438Z,11.57
2022-08-20T08:51:51.564Z,10.88
2022-08-20T08:54:40.393Z,8.93
2022-08-20T08:57:27.379Z,9.55
2022-08-20T09:00:14.238Z,11.15
2022-08-20T09:03:21.362Z,9.73
2022-08-20T09:06:03.121Z,11.10
2022-08-20T09:08:55.393Z,10.13
2022-08-20T09:11:50.081Z,10.77
2022-08-20T09:14:37.390Z,12.50
2022-08-20T09:17:27.400Z,12.68
2022-08-20T09:20:16.454Z,7.95
2022-08-20T09:23:03.359Z,12.30
2022-08-20T09:25:57.374Z,12.23
2022-08-20T09:28:38.026Z,9.10
2022-08-20T09:31:25.375Z,9.98
2022-08-20T09:34:06.330Z,10.55
2022-08-20T09:36:53.358Z,10.27
2022-08-20T09:39:33.844Z,12.77
2022-08-20T09:42:41.540Z,11.05
2022-08-20T09:45:28.366Z,11.75
2022-08-20T09:48:16.351Z,12.45
2022-08-20T09:51:04.338Z,14.10
2022-08-20T09:53:44.535Z,11.32
2022-08-20T09:56:31.359Z,12.40
2022-08-20T09:59:18.357Z,13.27
2022-08-20T10:02:05.417Z,14.10
2022-08-20T10:04:45.425Z,12.65
2022-08-20T10:07:33.317Z,14.45
2022-08-20T10:10:16.488Z,14.93
2022-08-20T10:13:03.334Z,11.70
2022-08-20T10:15:50.362Z,20.23
2022-08-20T10:18:30.795Z,13.07
2022-08-20T10:21:17.338Z,13.18
2022-08-20T10:24:05.310Z,13.80
2022-08-20T10:26:52.429Z,16.58
2022-08-20T10:29:33.306Z,12.90
2022-08-20T10:32:16.253Z,16.70
2022-08-20T10:35:03.301Z,15.77
2022-08-20T10:37:50.465Z,19.42
2022-08-20T10:40:30.317Z,15.90
2022-08-20T10:43:17.595Z,17.85
2022-08-20T10:45:58.491Z,18.58
2022-08-20T10:48:45.647Z,17.05
2022-08-20T10:51:32.786Z,16.10
2022-08-20T10:54:20.306Z,14.63
2022-08-20T10:57:00.419Z,17.35
2022-08-20T10:59:50.304Z,12.88
2022-08-20T11:02:31.437Z,11.05
2022-08-20T11:05:18.305Z,14.50
2022-08-20T11:07:59.915Z,11.65
2022-08-20T11:10:47.263Z,12.90
2022-08-20T11:13:34.267Z,19.63
2022-08-20T11:16:21.460Z,12.68
2022-08-20T11:19:02.290Z,14.20
2022-08-20T11:21:49.242Z,11.98
2022-08-20T11:24:36.271Z,14.05
2022-08-20T11:27:35.009Z,14.60
2022-08-20T11:30:28.276Z,16.67
2022-08-20T11:33:15.264Z,13.52
2022-08-20T11:36:02.200Z,14.63
2022-08-20T11:38:42.919Z,13.80
2022-08-20T11:41:29.253Z,13.25
2022-08-20T11:44:21.112Z,14.18
2022-08-20T11:47:10.246Z,14.13
2022-08-20T11:50:02.281Z,15.25
2022-08-20T11:52:49.243Z,12.02
2022-08-20T11:55:36.232Z,21.00
2022-08-20T11:58:16.373Z,13.05
2022-08-20T12:01:03.178Z,15.45
2022-08-20T12:03:50.226Z,11.80
2022-08-20T12:06:31.412Z,14.50
2022-08-20T12:09:20.761Z,12.50
2022-08-20T12:12:04.045Z,14.10
2022-08-20T12:14:51.205Z,12.85
2022-08-20T12:17:32.842Z,12.10
2022-08-20T12:20:24.203Z,11.00
2022-08-20T12:23:04.890Z,11.07
2022-08-20T12:25:51.209Z,15.75
2022-08-20T12:28:32.435Z,12.88
2022-08-20T12:31:19.177Z,12.05
2022-08-20T12:33:59.597Z,10.85
2022-08-20T12:36:46.193Z,10.13
2022-08-20T12:39:26.595Z,12.07
2022-08-20T12:42:14.214Z,12.27
2022-08-20T12:44:54.950Z,15.18
2022-08-20T12:47:47.238Z,13.75
2022-08-20T12:50:31.310Z,12.57
2022-08-20T12:53:19.150Z,11.23
2022-08-20T12:55:59.794Z,13.13
2022-08-20T12:58:46.197Z,10.55
2022-08-20T13:01:26.614Z,10.95
2022-08-20T13:04:13.155Z,10.63
2022-08-20T13:06:53.543Z,9.50
2022-08-20T13:09:42.205Z,8.43
2022-08-20T13:12:22.550Z,11.90
2022-08-20T13:15:09.159Z,14.00
2022-08-20T13:18:04.179Z,9.88
2022-08-20T13:20:44.322Z,9.73
2022-08-20T13:23:31.114Z,11.25
2022-08-20T13:26:25.105Z,9.63
2022-08-20T13:29:05.530Z,10.70
2022-08-20T13:31:52.137Z,9.95
2022-08-20T13:34:39.110Z,10.38
2022-08-20T13:37:30.148Z,11.55
2022-08-20T13:40:11.843Z,12.88
2022-08-20T13:43:01.247Z,11.60
2022-08-20T13:45:44.572Z,9.68
2022-08-20T13:48:31.155Z,11.90
2022-08-20T13:51:19.059Z,10.52
2022-08-20T13:53:59.129Z,11.15
2022-08-20T13:56:46.121Z,13.43
2022-08-20T13:59:26.321Z,9.75
2022-08-20T14:02:15.117Z,12.13
2022-08-20T14:04:56.269Z,11.88
2022-08-20T14:07:43.104Z,9.73
2022-08-20T14:10:32.648Z,9.63
2022-08-20T14:13:19.109Z,12.13
2022-08-20T14:15:59.259Z,11.05
2022-08-20T14:18:47.997Z,10.70
2022-08-20T14:21:32.191Z,11.35
2022-08-20T14:24:19.076Z,10.80
2022-08-20T14:27:13.050Z,8.80
2022-08-20T14:30:00.025Z,11.18
2022-08-20T14:32:40.209Z,12.23
2022-08-20T14:35:28.047Z,10.55
2022-08-20T14:38:15.070Z,13.13
2022-08-20T14:41:02.187Z,10.80
2022-08-20T14:43:42.062Z,12.55
2022-08-20T14:46:29.098Z,8.50
2022-08-20T14:49:11.182Z,10.95
2022-08-20T14:51:58.082Z,10.93
2022-08-20T14:54:38.238Z,11.73
2022-08-20T14:57:26.055Z,11.63
2022-08-20T15:00:08.426Z,12.32
2022-08-20T15:02:55.175Z,8.57
2022-08-20T15:05:35.165Z,9.73
2022-08-20T15:08:28.412Z,11.18
2022-08-20T15:28:12.074Z,8.60
2022-08-20T15:30:52.553Z,9.70
2022-08-20T15:33:39.018Z,11.73
2022-08-20T15:36:26.024Z,10.85
2022-08-20T15:39:13.062Z,10.52
2022-08-20T15:42:00.011Z,10.40
2022-08-20T15:44:49.095Z,10.52
2022-08-20T15:47:56.059Z,12.98
2022-08-20T15:51:38.038Z,10.75
2022-08-20T15:54:30.030Z,10.07
2022-08-20T15:57:17.460Z,11.25
2022-08-20T16:00:20.061Z,10.45
2022-08-20T16:03:12.444Z,10.57
2022-08-20T16:06:15.041Z,10.23
2022-08-20T16:09:11.030Z,10.00
2022-08-20T16:12:08.692Z,10.52
2022-08-20T16:15:00.000Z,12.77
2022-08-20T16:17:44.008Z,12.88
2022-08-20T16:20:40.996Z,11.25
2022-08-20T16:23:28.088Z,12.75
2022-08-20T16:26:53.008Z,9.65
2022-08-20T16:32:30.999Z,10.23
2022-08-20T16:35:30.107Z,10.35
2022-08-20T16:38:32.023Z,14.27
2022-08-20T16:41:27.097Z,13.10
2022-08-20T16:44:16.016Z,10.32
2022-08-20T16:47:14.037Z,11.50
2022-08-20T16:50:08.096Z,11.63
2022-08-20T16:52:58.150Z,12.38
2022-08-20T16:55:39.141Z,9.32
2022-08-20T16:58:25.970Z,11.98
2022-08-20T17:01:21.171Z,11.63
2022-08-20T17:04:07.941Z,10.05
2022-08-20T17:07:00.960Z,13.85
2022-08-20T17:09:49.986Z,11.52
2022-08-20T17:12:34.094Z,11.32
2022-08-20T17:15:36.987Z,11.77
2022-08-20T17:18:27.571Z,12.10
2022-08-20T17:21:29.983Z,14.30
2022-08-20T17:24:16.748Z,14.80
2022-08-20T17:27:10.317Z,10.60
2022-08-20T17:30:06.972Z,9.80
2022-08-20T17:33:00.890Z,12.45
2022-08-20T17:35:55.955Z,10.30
2022-08-20T17:39:00.055Z,11.85
2022-08-20T17:41:41.937Z,13.32
2022-08-20T17:44:36.946Z,14.73
2022-08-20T17:47:28.931Z,14.70
2022-08-20T17:50:18.763Z,12.38
2022-08-20T17:53:09.946Z,13.45
2022-08-20T17:55:54.706Z,10.50
2022-08-20T17:59:23.903Z,18.35
2022-08-20T18:02:23.911Z,10.68
2022-08-20T18:05:11.899Z,10.75
2022-08-20T18:08:04.369Z,12.00
2022-08-20T18:11:05.904Z,17.10
2022-08-20T18:14:24.890Z,13.63
2022-08-20T18:17:46.907Z,12.70
2022-08-20T18:20:40.896Z,11.10
2022-08-20T18:23:21.212Z,11.48
2022-08-20T18:26:16.926Z,11.63
2022-08-20T18:29:09.055Z,13.65
2022-08-20T18:32:07.884Z,12.25
2022-08-20T18:34:54.892Z,13.80
2022-08-20T18:37:43.846Z,14.52
2022-08-20T18:40:31.274Z,13.95
2022-08-20T18:43:27.877Z,11.77
2022-08-20T18:46:19.013Z,13.05
2022-08-20T18:49:09.872Z,15.77
2022-08-20T18:51:51.233Z,13.10
2022-08-20T18:54:43.868Z,13.98
2022-08-20T18:57:26.938Z,14.13
2022-08-20T19:00:30.653Z,18.20
2022-08-20T19:03:23.917Z,13.48
2022-08-20T19:06:22.050Z,13.02
2022-08-20T19:09:31.866Z,19.30
2022-08-20T19:12:39.971Z,17.42
2022-08-20T19:15:31.847Z,13.57
2022-08-20T19:18:32.847Z,16.45
2022-08-20T19:21:22.825Z,15.80
2022-08-20T19:24:06.234Z,16.73
2022-08-20T19:27:02.862Z,14.27
2022-08-20T19:30:02.997Z,15.75
2022-08-20T19:32:59.059Z,14.43
2022-08-20T19:35:38.931Z,13.98
2022-08-20T19:38:25.850Z,13.63
2022-08-20T19:41:11.584Z,11.23
2022-08-20T19:44:02.789Z,11.23
2022-08-20T19:46:55.833Z,16.88
2022-08-20T19:49:45.361Z,13.23
2022-08-20T19:52:51.804Z,14.50
2022-08-20T19:55:41.785Z,15.35
2022-08-20T19:58:27.220Z,11.38
2022-08-20T20:01:26.830Z,12.98
2022-08-20T20:04:09.933Z,12.15
2022-08-20T20:06:56.810Z,11.97
2022-08-20T20:09:36.905Z,12.23
2022-08-20T20:12:23.783Z,11.85
2022-08-20T20:15:10.771Z,12.68
2022-08-20T20:17:53.305Z,11.43
2022-08-20T20:20:55.939Z,16.33
2022-08-20T20:23:46.671Z,12.65
2022-08-20T20:26:33.806Z,14.50
2022-08-20T20:29:33.786Z,12.70
2022-08-20T20:32:26.937Z,10.95
2022-08-20T20:35:13.735Z,15.77
2022-08-20T20:38:14.773Z,14.98
2022-08-20T20:41:04.740Z,12.38
2022-08-20T20:43:48.948Z,12.77
2022-08-20T20:49:18.930Z,18.10
2022-08-20T20:52:15.031Z,10.57
2022-08-20T20:55:01.733Z,13.45
2022-08-20T20:57:42.259Z,12.60
2022-08-20T21:00:30.740Z,11.15
2022-08-20T21:03:11.121Z,13.85
2022-08-20T21:05:57.771Z,19.10
2022-08-20T21:08:38.297Z,13.50
2022-08-20T21:11:25.738Z,10.68
2022-08-20T21:14:12.724Z,12.85
2022-08-20T21:16:52.881Z,13.55
2022-08-20T21:19:44.926Z,17.67
2022-08-20T21:22:33.753Z,14.80
2022-08-20T21:25:14.751Z,16.50
2022-08-20T21:28:04.756Z,15.82
2022-08-20T21:30:51.737Z,14.18
2022-08-20T21:33:38.839Z,15.93
2022-08-20T21:36:25.713Z,12.27
2022-08-20T21:39:05.837Z,14.80
2022-08-20T21:41:52.730Z,14.32
2022-08-20T21:44:49.407Z,16.25
2022-08-20T21:47:30.137Z,13.82
2022-08-20T21:50:18.619Z,20.35
2022-08-20T21:53:12.309Z,15.57
2022-08-20T21:55:52.824Z,13.75
2022-08-20T21:58:39.686Z,12.13
2022-08-20T22:01:20.849Z,14.82
2022-08-20T22:04:07.673Z,77.15
2022-08-20T22:06:47.803Z,13.15
2022-08-20T22:09:34.666Z,14.25
2022-08-20T22:12:29.837Z,15.85
2022-08-20T22:15:16.681Z,13.90
2022-08-20T22:17:56.769Z,11.82
2022-08-20T22:20:45.672Z,36.63
2022-08-20T22:23:25.799Z,14.15
2022-08-20T22:26:13.642Z,18.42
2022-08-20T22:29:07.682Z,17.08
2022-08-20T22:31:48.425Z,14.88
2022-08-20T22:34:35.673Z,16.88
2022-08-20T22:37:22.641Z,12.85
2022-08-20T22:40:02.855Z,14.00
2022-08-20T22:42:49.637Z,15.07
2022-08-20T22:45:36.655Z,16.15
2022-08-20T22:48:26.647Z,16.98
2022-08-20T22:51:07.734Z,50.08
2022-08-20T22:53:56.620Z,37.75
2022-08-20T22:56:43.593Z,17.48
2022-08-20T22:59:31.625Z,17.30
2022-08-20T23:02:19.807Z,21.13
2022-08-20T23:05:06.572Z,18.55
2022-08-20T23:07:50.713Z,36.65
2022-08-20T23:10:41.613Z,26.40
2022-08-20T23:13:28.617Z,17.35
2022-08-20T23:16:15.597Z,15.57
2022-08-20T23:18:55.725Z,14.77
2022-08-20T23:21:42.596Z,14.32
2022-08-20T23:24:29.571Z,12.40
2022-08-20T23:27:12.592Z,11.60
2022-08-20T23:29:59.577Z,13.18
2022-08-20T23:32:39.772Z,14.95
2022-08-20T23:35:32.175Z,14.73
2022-08-20T23:38:20.595Z,16.52
2022-08-20T23:41:07.595Z,15.80
2022-08-20T23:43:47.689Z,13.98
2022-08-20T23:46:40.551Z,13.68
2022-08-20T23:49:27.557Z,50.50
2022-08-20T23:52:07.962Z,35.75
2022-08-20T23:54:54.564Z,19.55
2022-08-20T23:57:35.043Z,24.73
